Time;durP1;ratioP1;P1;durP2;ratioP2;P2;SDS_P1;SDS_P2;PMS_P1;PMS_P2;Temp;Humidity;BMP_temperature;BMP_pressure;BME280_temperature;BME280_humidity;BME280_pressure;Samples;Min_cycle;Max_cycle;Signal;HPM_P1;HPM_P2
2022/07/22 00:00:14;;;;;;;4.20;2.03;;;24.70;57.40;;;;;;5007340;28;20588;-54
2022/07/22 00:02:40;;;;;;;5.10;2.10;;;24.70;57.60;;;;;;5007720;28;20119;-54
2022/07/22 00:05:07;;;;;;;3.78;1.98;;;24.70;57.50;;;;;;5003190;28;20044;-56
2022/07/22 00:07:32;;;;;;;4.13;1.95;;;24.70;57.70;;;;;;5006272;28;20025;-55
2022/07/22 00:09:58;;;;;;;4.72;2.00;;;24.70;57.40;;;;;;5005642;28;20029;-56
2022/07/22 00:12:23;;;;;;;5.10;1.83;;;24.70;57.50;;;;;;5001636;28;20040;-56
2022/07/22 00:14:49;;;;;;;4.32;1.92;;;24.70;57.50;;;;;;5007083;28;20025;-55
2022/07/22 00:17:15;;;;;;;4.95;2.10;;;24.70;57.40;;;;;;5004672;28;20022;-55
2022/07/22 00:19:40;;;;;;;3.83;1.90;;;24.70;57.50;;;;;;5002200;28;20506;-54
2022/07/22 00:22:06;;;;;;;3.88;2.00;;;24.70;57.60;;;;;;5006459;28;20528;-55
2022/07/22 00:24:32;;;;;;;2.63;1.73;;;24.60;57.60;;;;;;5002841;28;20031;-56
2022/07/22 00:26:57;;;;;;;4.38;1.95;;;24.60;57.60;;;;;;5004354;28;20018;-56
2022/07/22 00:29:23;;;;;;;5.40;1.85;;;24.60;57.60;;;;;;5019768;28;20076;-55
2022/07/22 00:31:49;;;;;;;5.47;2.10;;;24.60;57.60;;;;;;5008012;28;20037;-55
2022/07/22 00:34:14;;;;;;;3.33;1.80;;;24.60;57.70;;;;;;5005760;28;20030;-55
2022/07/22 00:36:40;;;;;;;3.97;1.98;;;24.60;57.80;;;;;;5006880;28;20501;-55
2022/07/22 00:39:06;;;;;;;3.90;1.70;;;24.60;57.80;;;;;;5005816;28;20088;-54
2022/07/22 00:41:31;;;;;;;3.60;1.90;;;24.60;57.60;;;;;;5004272;28;20040;-55
2022/07/22 00:44:06;;;;;;;3.58;2.00;;;24.60;57.70;;;;;;5006266;28;20101;-56
2022/07/22 00:46:32;;;;;;;4.47;2.00;;;24.60;57.60;;;;;;5004760;28;20033;-56
2022/07/22 00:48:58;;;;;;;4.13;1.90;;;24.60;57.60;;;;;;5004325;28;20037;-56
2022/07/22 00:51:24;;;;;;;3.65;1.80;;;24.60;57.70;;;;;;5004779;28;20021;-56
2022/07/22 00:53:50;;;;;;;4.65;1.70;;;24.50;57.70;;;;;;5004853;28;20117;-55
2022/07/22 00:56:16;;;;;;;4.03;1.90;;;24.50;57.70;;;;;;5003607;28;20122;-55
2022/07/22 00:58:42;;;;;;;4.43;1.90;;;24.60;57.60;;;;;;5004489;28;20017;-56
2022/07/22 01:01:07;;;;;;;3.33;1.80;;;24.50;57.70;;;;;;5005779;28;20487;-55
2022/07/22 01:03:33;;;;;;;3.58;1.90;;;24.50;57.60;;;;;;5004821;28;20553;-55
2022/07/22 01:05:59;;;;;;;3.17;1.88;;;24.50;57.70;;;;;;5005711;28;20022;-56
2022/07/22 01:08:25;;;;;;;4.75;1.90;;;24.50;57.70;;;;;;5005869;28;20037;-56
2022/07/22 01:10:50;;;;;;;3.05;1.73;;;24.50;57.70;;;;;;5006203;28;20038;-55
2022/07/22 01:13:16;;;;;;;3.30;1.90;;;24.50;57.70;;;;;;5006697;28;20118;-54
2022/07/22 01:15:41;;;;;;;4.90;1.80;;;24.50;57.70;;;;;;5005641;28;20029;-54
2022/07/22 01:18:07;;;;;;;3.78;2.00;;;24.50;57.70;;;;;;5005517;28;20092;-55
2022/07/22 01:20:37;;;;;;;3.60;1.80;;;24.50;57.70;;;;;;5005562;28;20052;-56
2022/07/22 01:23:02;;;;;;;5.00;1.80;;;24.50;57.70;;;;;;5004857;28;20022;-55
2022/07/22 01:25:28;;;;;;;3.55;1.60;;;24.50;57.80;;;;;;5003860;28;20033;-56
2022/07/22 01:27:54;;;;;;;3.47;1.90;;;24.40;57.70;;;;;;5005536;28;20458;-56
2022/07/22 01:30:19;;;;;;;2.75;1.90;;;24.50;57.70;;;;;;5006707;28;20045;-55
2022/07/22 01:32:45;;;;;;;3.75;1.58;;;24.40;57.70;;;;;;5005267;28;20068;-55
2022/07/22 01:35:11;;;;;;;4.20;1.80;;;24.50;57.70;;;;;;5004283;28;20045;-56
2022/07/22 01:37:36;;;;;;;3.63;1.90;;;24.40;57.60;;;;;;5007285;28;20022;-55
2022/07/22 01:40:03;;;;;;;3.08;1.77;;;24.40;57.80;;;;;;5006820;28;20034;-56
2022/07/22 01:42:29;;;;;;;3.95;2.00;;;24.40;57.70;;;;;;5005102;28;20010;-56
2022/07/22 01:44:54;;;;;;;3.25;2.00;;;24.40;57.70;;;;;;5005682;28;20034;-56
2022/07/22 01:47:20;;;;;;;3.03;1.65;;;24.40;57.80;;;;;;5004592;28;20495;-53
2022/07/22 01:49:45;;;;;;;2.47;1.65;;;24.40;57.70;;;;;;5006136;28;21016;-53
2022/07/22 01:52:11;;;;;;;3.70;1.88;;;24.40;57.70;;;;;;5003864;28;20376;-54
2022/07/22 01:54:37;;;;;;;3.95;1.80;;;24.40;57.60;;;;;;5006423;28;20033;-56
2022/07/22 01:57:03;;;;;;;5.68;2.00;;;24.40;57.70;;;;;;5005506;28;20084;-55
2022/07/22 01:59:28;;;;;;;4.95;1.70;;;24.40;57.70;;;;;;5002286;28;20057;-55
2022/07/22 02:01:54;;;;;;;4.25;1.80;;;24.40;57.70;;;;;;5003323;28;20026;-55
2022/07/22 02:04:19;;;;;;;3.63;1.98;;;24.40;57.70;;;;;;5006009;28;20038;-55
2022/07/22 02:06:45;;;;;;;2.97;1.83;;;24.40;57.60;;;;;;5005902;28;20018;-55
2022/07/22 02:09:11;;;;;;;3.22;1.65;;;24.30;57.70;;;;;;5006213;28;20620;-56
2022/07/22 02:11:36;;;;;;;2.50;1.60;;;24.30;57.60;;;;;;5004767;28;20506;-55
2022/07/22 02:14:02;;;;;;;3.60;1.67;;;24.30;57.70;;;;;;5004159;28;20812;-55
2022/07/22 02:16:28;;;;;;;3.30;1.90;;;24.30;57.60;;;;;;5006206;28;20606;-56
2022/07/22 02:18:53;;;;;;;2.63;1.65;;;24.30;57.60;;;;;;5004969;28;20037;-54
2022/07/22 02:21:20;;;;;;;3.72;1.88;;;24.30;57.60;;;;;;5005084;28;20026;-54
2022/07/22 02:23:45;;;;;;;3.08;1.60;;;24.30;57.60;;;;;;5006061;28;20101;-56
2022/07/22 02:26:11;;;;;;;3.58;1.90;;;24.30;57.70;;;;;;5006625;28;20164;-55
2022/07/22 02:28:37;;;;;;;4.70;2.00;;;24.30;57.70;;;;;;5007059;28;20069;-55
2022/07/22 02:31:03;;;;;;;3.97;1.90;;;24.30;57.70;;;;;;5003421;28;20030;-55
2022/07/22 02:33:29;;;;;;;2.83;1.70;;;24.30;57.70;;;;;;5006719;28;20510;-55
2022/07/22 02:35:55;;;;;;;3.55;1.80;;;24.30;57.70;;;;;;5004585;28;20029;-55
2022/07/22 02:38:21;;;;;;;2.65;1.52;;;24.30;57.60;;;;;;5007128;28;20121;-55
2022/07/22 02:40:47;;;;;;;3.08;1.70;;;24.30;57.70;;;;;;5007590;28;20133;-55
2022/07/22 02:43:12;;;;;;;4.57;1.70;;;24.30;57.70;;;;;;5009464;28;20052;-54
2022/07/22 02:45:38;;;;;;;2.05;1.70;;;24.20;57.70;;;;;;5010448;28;20037;-55
2022/07/22 02:48:04;;;;;;;2.50;1.60;;;24.20;57.70;;;;;;5007492;28;20410;-54
2022/07/22 02:50:30;;;;;;;2.58;1.65;;;24.20;58.70;;;;;;5009942;28;20439;-55
2022/07/22 02:52:55;;;;;;;3.22;1.48;;;24.20;57.70;;;;;;5005721;28;20038;-55
2022/07/22 02:55:21;;;;;;;3.53;1.70;;;24.20;57.70;;;;;;5007378;28;20081;-56
2022/07/22 02:57:47;;;;;;;3.45;1.58;;;24.20;57.60;;;;;;5009275;28;20056;-55
2022/07/22 03:00:13;;;;;;;2.40;1.55;;;24.20;57.80;;;;;;5007759;28;20891;-55
2022/07/22 03:02:39;;;;;;;2.50;1.67;;;24.20;57.70;;;;;;5009029;28;20048;-55
2022/07/22 03:05:05;;;;;;;2.38;1.60;;;24.20;57.70;;;;;;5009409;28;20478;-54
2022/07/22 03:07:30;;;;;;;2.85;1.63;;;24.20;57.70;;;;;;5007888;28;20029;-54
2022/07/22 03:09:56;;;;;;;3.08;1.70;;;24.20;57.70;;;;;;5007966;28;20567;-56
2022/07/22 03:12:22;;;;;;;3.35;1.75;;;24.20;57.80;;;;;;5008465;28;20030;-54
2022/07/22 03:14:47;;;;;;;2.90;1.80;;;24.20;57.80;;;;;;5009987;28;20402;-56
2022/07/22 03:17:13;;;;;;;4.07;1.65;;;24.20;57.90;;;;;;5006823;28;20501;-54
2022/07/22 03:19:39;;;;;;;4.13;1.80;;;24.20;57.80;;;;;;5008395;28;20113;-55
2022/07/22 03:22:04;;;;;;;3.60;1.83;;;24.20;57.80;;;;;;5008950;28;20029;-55
2022/07/22 03:24:30;;;;;;;4.28;1.50;;;24.20;57.80;;;;;;5010834;28;20025;-55
2022/07/22 03:26:55;;;;;;;3.67;1.60;;;24.10;57.70;;;;;;5006377;28;20033;-55
2022/07/22 03:29:21;;;;;;;4.28;1.50;;;24.20;57.80;;;;;;5007335;28;20049;-53
2022/07/22 03:31:47;;;;;;;3.40;1.60;;;24.20;57.80;;;;;;5008258;28;20077;-55
2022/07/22 03:34:12;;;;;;;2.55;1.60;;;24.10;57.70;;;;;;5008913;28;20076;-55
2022/07/22 03:36:38;;;;;;;2.80;1.63;;;24.10;57.80;;;;;;5008091;28;20133;-56
2022/07/22 03:39:04;;;;;;;2.65;1.50;;;24.10;57.80;;;;;;5009214;28;20476;-54
2022/07/22 03:41:29;;;;;;;2.13;1.50;;;24.10;57.70;;;;;;5002282;28;20025;-55
2022/07/22 03:43:55;;;;;;;2.40;1.58;;;24.10;57.80;;;;;;5008887;28;20030;-56
2022/07/22 03:46:21;;;;;;;3.17;1.50;;;24.10;57.80;;;;;;5004270;28;20108;-56
2022/07/22 03:48:46;;;;;;;3.35;1.55;;;24.10;57.80;;;;;;5010086;28;20113;-54
2022/07/22 03:51:12;;;;;;;2.30;1.52;;;24.10;57.80;;;;;;5005250;28;20104;-55
2022/07/22 03:53:38;;;;;;;2.53;1.50;;;24.10;57.80;;;;;;5006172;28;20088;-55
2022/07/22 03:56:04;;;;;;;3.10;1.67;;;24.10;57.80;;;;;;5001991;28;20027;-54
2022/07/22 03:58:29;;;;;;;2.63;1.58;;;24.10;57.80;;;;;;5006395;28;20448;-55
2022/07/22 04:00:55;;;;;;;2.00;1.40;;;24.00;57.80;;;;;;5005504;28;20026;-55
2022/07/22 04:03:21;;;;;;;3.78;1.70;;;24.00;57.70;;;;;;5004747;28;20116;-53
2022/07/22 04:05:46;;;;;;;3.00;1.63;;;24.00;57.70;;;;;;5008070;28;20054;-54
2022/07/22 04:08:12;;;;;;;2.30;1.70;;;24.00;57.70;;;;;;5007555;28;20088;-55
2022/07/22 04:10:38;;;;;;;3.08;1.60;;;24.00;57.70;;;;;;5005055;28;20026;-55
2022/07/22 04:13:04;;;;;;;3.38;1.60;;;24.00;57.70;;;;;;5007367;28;20037;-55
2022/07/22 04:15:30;;;;;;;3.50;1.63;;;24.00;57.80;;;;;;5007562;28;20038;-54
2022/07/22 04:17:55;;;;;;;2.95;1.60;;;24.00;57.70;;;;;;5004286;28;20060;-55
2022/07/22 04:20:21;;;;;;;3.22;1.55;;;24.00;57.80;;;;;;5005546;28;20038;-54
2022/07/22 04:22:47;;;;;;;3.55;1.60;;;24.00;57.80;;;;;;5002887;28;20029;-55
2022/07/22 04:25:12;;;;;;;3.25;1.50;;;24.00;57.80;;;;;;5001744;28;20022;-55
2022/07/22 04:27:38;;;;;;;2.25;1.40;;;24.00;57.80;;;;;;5006484;28;20022;-55
2022/07/22 04:30:04;;;;;;;2.85;1.77;;;24.00;57.80;;;;;;5005190;28;20034;-54
2022/07/22 04:32:30;;;;;;;2.92;1.50;;;24.00;57.80;;;;;;5004655;28;20033;-55
2022/07/22 04:34:57;;;;;;;2.17;1.40;;;23.90;57.70;;;;;;5005744;28;20053;-54
2022/07/22 04:37:22;;;;;;;2.20;1.60;;;24.00;57.90;;;;;;5007742;28;20032;-54
2022/07/22 04:39:48;;;;;;;3.85;1.48;;;24.00;57.80;;;;;;5022119;28;20057;-55
2022/07/22 04:42:14;;;;;;;2.10;1.50;;;24.00;58.00;;;;;;5008112;28;20038;-55
2022/07/22 04:44:39;;;;;;;2.95;1.63;;;23.90;57.70;;;;;;5005187;28;20023;-56
2022/07/22 04:47:05;;;;;;;2.33;1.40;;;24.00;57.90;;;;;;5004813;28;20040;-55
2022/07/22 04:49:31;;;;;;;2.67;1.55;;;24.00;57.80;;;;;;5005534;28;20022;-54
2022/07/22 04:51:58;;;;;;;2.20;1.40;;;24.00;57.90;;;;;;5006613;28;20525;-54
2022/07/22 04:54:23;;;;;;;2.80;1.67;;;23.90;57.80;;;;;;5002473;28;20049;-54
2022/07/22 04:56:49;;;;;;;3.78;1.50;;;23.90;57.80;;;;;;5003789;28;20018;-55
2022/07/22 04:59:15;;;;;;;3.97;1.60;;;23.90;57.80;;;;;;5003557;28;20087;-54
2022/07/22 05:01:40;;;;;;;2.20;1.50;;;23.90;57.80;;;;;;5004599;28;20466;-54
2022/07/22 05:04:06;;;;;;;3.90;1.63;;;23.90;57.80;;;;;;5003846;28;20505;-54
2022/07/22 05:06:32;;;;;;;5.40;1.63;;;23.90;57.80;;;;;;5004916;28;20029;-57
2022/07/22 05:08:57;;;;;;;3.90;1.60;;;23.90;57.80;;;;;;5004115;28;20026;-55
2022/07/22 05:11:23;;;;;;;4.65;1.80;;;23.90;57.80;;;;;;5004628;28;20034;-54
2022/07/22 05:13:49;;;;;;;3.47;1.30;;;23.90;57.80;;;;;;5005220;28;20033;-51
2022/07/22 05:16:14;;;;;;;7.45;1.85;;;23.90;58.00;;;;;;5004254;28;20026;-56
2022/07/22 05:18:40;;;;;;;8.88;1.92;;;23.80;55.60;;;;;;5005003;28;20026;-54
2022/07/22 05:21:07;;;;;;;6.50;1.90;;;23.70;55.40;;;;;;5003412;28;20125;-53
2022/07/22 05:23:33;;;;;;;10.35;2.05;;;23.60;55.00;;;;;;5004529;28;20465;-54
2022/07/22 05:25:58;;;;;;;8.57;1.90;;;23.60;55.20;;;;;;5001552;28;20525;-53
2022/07/22 05:28:24;;;;;;;5.32;1.60;;;23.60;56.20;;;;;;5004779;28;20018;-54
2022/07/22 05:30:50;;;;;;;5.63;1.75;;;23.60;56.60;;;;;;5006173;28;20088;-54
2022/07/22 05:33:16;;;;;;;9.25;1.92;;;23.60;56.40;;;;;;5006673;28;20057;-54
2022/07/22 05:35:41;;;;;;;7.03;1.92;;;23.60;56.40;;;;;;5006236;28;20045;-54
2022/07/22 05:38:07;;;;;;;6.07;1.90;;;23.70;56.60;;;;;;5007743;28;20033;-54
2022/07/22 05:40:33;;;;;;;9.27;1.90;;;23.70;56.60;;;;;;5005105;28;20060;-54
2022/07/22 05:42:59;;;;;;;5.68;1.70;;;23.70;56.60;;;;;;5005599;28;20029;-54
2022/07/22 05:45:24;;;;;;;7.20;1.85;;;23.70;56.60;;;;;;5005811;28;20064;-53
2022/07/22 05:47:50;;;;;;;5.45;1.58;;;23.70;56.60;;;;;;5003705;28;20021;-52
2022/07/22 05:50:16;;;;;;;6.38;1.80;;;23.70;56.60;;;;;;5006776;28;20038;-54
2022/07/22 05:52:42;;;;;;;6.03;1.70;;;23.70;56.60;;;;;;5004828;28;20050;-54
2022/07/22 05:55:08;;;;;;;7.13;1.90;;;23.70;56.60;;;;;;5007107;28;20033;-53
2022/07/22 05:57:34;;;;;;;5.03;1.77;;;23.70;56.60;;;;;;5003971;28;20417;-54
2022/07/22 05:59:59;;;;;;;6.10;1.70;;;23.70;56.60;;;;;;5005337;28;20047;-52
2022/07/22 06:02:25;;;;;;;4.82;1.63;;;23.70;56.50;;;;;;5004565;28;20029;-53
2022/07/22 06:04:50;;;;;;;4.72;1.73;;;23.70;56.60;;;;;;5006476;28;20491;-55
2022/07/22 06:07:17;;;;;;;5.53;1.60;;;23.70;57.50;;;;;;5005059;28;20458;-54
2022/07/22 06:09:42;;;;;;;3.97;1.60;;;23.70;56.50;;;;;;5002019;28;20025;-53
2022/07/22 06:12:08;;;;;;;7.78;1.70;;;23.70;56.50;;;;;;5004430;28;20156;-54
2022/07/22 06:14:36;;;;;;;4.88;1.67;;;23.70;56.50;;;;;;5007321;28;20052;-53
2022/07/22 06:17:01;;;;;;;5.72;1.75;;;23.70;57.50;;;;;;5004768;28;20479;-53
2022/07/22 06:19:29;;;;;;;4.75;1.60;;;23.70;56.40;;;;;;5004773;28;20080;-55
2022/07/22 06:21:55;;;;;;;7.00;1.90;;;23.70;56.40;;;;;;5006127;28;20034;-54
2022/07/22 06:24:20;;;;;;;5.18;1.50;;;23.70;56.40;;;;;;5004961;28;20033;-54
2022/07/22 06:26:46;;;;;;;6.00;1.88;;;23.70;56.50;;;;;;5005179;28;20486;-53
2022/07/22 06:29:12;;;;;;;5.18;1.73;;;23.70;56.40;;;;;;5006357;28;20034;-54
2022/07/22 06:31:37;;;;;;;5.03;1.60;;;23.70;56.50;;;;;;5007510;28;20029;-54
2022/07/22 06:34:05;;;;;;;5.18;1.60;;;23.70;56.40;;;;;;5006228;28;20118;-54
2022/07/22 06:36:31;;;;;;;3.42;1.52;;;23.70;56.50;;;;;;5005414;28;20084;-54
2022/07/22 06:38:57;;;;;;;5.15;1.63;;;23.70;56.50;;;;;;5005634;28;20034;-53
2022/07/22 06:41:24;;;;;;;7.53;1.80;;;23.70;56.40;;;;;;5006161;28;20441;-54
2022/07/22 06:43:49;;;;;;;4.50;1.65;;;23.80;56.50;;;;;;5007697;28;20160;-55
2022/07/22 06:46:15;;;;;;;4.53;1.70;;;23.70;56.40;;;;;;5004458;28;20109;-55
2022/07/22 06:48:41;;;;;;;5.05;1.60;;;23.70;56.40;;;;;;5004714;28;20113;-55
2022/07/22 06:51:06;;;;;;;5.00;1.70;;;23.80;56.50;;;;;;5004883;28;20513;-54
2022/07/22 06:53:32;;;;;;;4.10;1.60;;;23.70;56.40;;;;;;5006703;28;20397;-53
2022/07/22 06:55:58;;;;;;;4.75;1.50;;;23.80;56.50;;;;;;5004316;28;20467;-53
2022/07/22 06:58:24;;;;;;;5.28;1.52;;;23.70;56.40;;;;;;5006544;28;20083;-53
2022/07/22 07:00:50;;;;;;;4.65;1.55;;;23.80;56.50;;;;;;5005968;28;20040;-52
2022/07/22 07:03:15;;;;;;;4.90;1.70;;;23.80;56.50;;;;;;5005718;28;20413;-54
2022/07/22 07:05:41;;;;;;;6.05;1.88;;;23.70;56.40;;;;;;5005424;28;20411;-53
2022/07/22 07:08:07;;;;;;;3.05;1.40;;;23.80;56.50;;;;;;5004653;28;20037;-54
2022/07/22 07:10:32;;;;;;;3.85;1.52;;;23.70;56.40;;;;;;5004895;28;20033;-53
2022/07/22 07:12:58;;;;;;;4.03;1.60;;;23.80;56.50;;;;;;5004782;28;20466;-53
2022/07/22 07:15:27;;;;;;;4.45;1.50;;;23.70;56.40;;;;;;5004291;28;20096;-54
2022/07/22 07:17:53;;;;;;;5.05;1.60;;;23.80;56.40;;;;;;5004412;28;20030;-53
2022/07/22 07:20:19;;;;;;;4.63;1.55;;;23.80;56.40;;;;;;5005444;28;20050;-54
2022/07/22 07:22:45;;;;;;;4.30;1.48;;;23.80;56.50;;;;;;5007368;28;20092;-53
2022/07/22 07:25:11;;;;;;;4.95;1.60;;;23.80;56.50;;;;;;5005390;28;20043;-53
2022/07/22 07:27:36;;;;;;;4.88;1.70;;;23.80;56.40;;;;;;5008562;28;20048;-53
2022/07/22 07:30:06;;;;;;;3.50;1.40;;;23.80;56.40;;;;;;5008835;28;20030;-52
2022/07/22 07:32:32;;;;;;;4.32;1.50;;;23.80;56.40;;;;;;5009547;28;20024;-53
2022/07/22 07:34:57;;;;;;;4.18;1.52;;;23.80;56.40;;;;;;5008865;28;20034;-53
2022/07/22 07:37:23;;;;;;;3.28;1.55;;;23.80;56.40;;;;;;5007568;28;20033;-54
2022/07/22 07:39:49;;;;;;;3.15;1.40;;;23.80;56.40;;;;;;5009113;28;20030;-52
2022/07/22 07:42:14;;;;;;;5.13;1.55;;;23.80;56.30;;;;;;5007679;28;20026;-54
2022/07/22 07:44:40;;;;;;;3.17;1.35;;;23.80;56.30;;;;;;5005382;28;20026;-54
2022/07/22 07:47:06;;;;;;;3.72;1.50;;;23.80;56.30;;;;;;5007707;28;20045;-54
2022/07/22 07:49:31;;;;;;;3.08;1.30;;;23.80;56.20;;;;;;5007838;28;20124;-53
2022/07/22 07:51:59;;;;;;;3.55;1.33;;;23.80;56.30;;;;;;5006563;28;20402;-53
2022/07/22 07:54:25;;;;;;;4.38;1.75;;;23.80;56.30;;;;;;5004793;28;20045;-53
2022/07/22 07:56:51;;;;;;;4.85;1.40;;;23.80;56.20;;;;;;5007320;28;20518;-53
2022/07/22 07:59:16;;;;;;;2.15;1.20;;;23.80;56.20;;;;;;5009326;28;20379;-52
2022/07/22 08:01:42;;;;;;;6.03;1.63;;;23.80;56.10;;;;;;5008251;28;20029;-54
2022/07/22 08:04:08;;;;;;;5.45;1.60;;;23.80;56.10;;;;;;5005475;28;20054;-53
2022/07/22 08:06:34;;;;;;;5.60;1.60;;;23.80;56.20;;;;;;5007082;28;20088;-52
2022/07/22 08:08:59;;;;;;;4.40;1.60;;;23.80;56.20;;;;;;5006343;28;20684;-52
2022/07/22 08:11:25;;;;;;;5.72;1.70;;;23.80;56.20;;;;;;5005859;28;20627;-53
2022/07/22 08:13:51;;;;;;;3.33;1.40;;;23.80;56.20;;;;;;5008650;28;20045;-50
2022/07/22 08:16:17;;;;;;;3.67;1.50;;;23.80;56.10;;;;;;5007843;28;20105;-54
2022/07/22 08:18:42;;;;;;;4.28;1.50;;;23.90;56.40;;;;;;5006990;28;20029;-53
2022/07/22 08:21:08;;;;;;;4.53;1.60;;;23.90;56.10;;;;;;5004129;28;20030;-53
2022/07/22 08:23:34;;;;;;;3.78;1.60;;;23.90;56.10;;;;;;4988434;28;20069;-53
2022/07/22 08:26:00;;;;;;;3.42;1.30;;;23.90;56.30;;;;;;5005348;28;20495;-54
2022/07/22 08:28:26;;;;;;;3.80;1.50;;;23.90;56.10;;;;;;5009381;28;20490;-51
2022/07/22 08:30:52;;;;;;;3.45;1.48;;;23.90;56.10;;;;;;5006078;28;20023;-54
2022/07/22 08:33:17;;;;;;;4.63;1.52;;;23.90;56.10;;;;;;5001878;28;20109;-53
2022/07/22 08:35:43;;;;;;;4.95;1.60;;;23.90;56.10;;;;;;5003528;28;20073;-53
2022/07/22 08:38:09;;;;;;;7.22;2.17;;;24.00;56.20;;;;;;5006501;28;20116;-54
2022/07/22 08:40:35;;;;;;;11.05;2.70;;;24.00;57.40;;;;;;5005229;28;20033;-54
2022/07/22 08:43:02;;;;;;;7.10;1.80;;;24.00;59.20;;;;;;5006667;28;20033;-54
2022/07/22 08:45:29;;;;;;;6.32;1.77;;;24.00;57.50;;;;;;5004531;28;20025;-53
2022/07/22 08:47:55;;;;;;;5.78;1.70;;;24.10;57.10;;;;;;5005191;28;20045;-55
2022/07/22 08:50:20;;;;;;;5.15;1.52;;;24.10;57.10;;;;;;5008294;28;20034;-54
2022/07/22 08:52:46;;;;;;;8.63;1.75;;;24.10;57.10;;;;;;5007905;28;20110;-54
2022/07/22 08:55:12;;;;;;;10.88;2.00;;;24.10;56.90;;;;;;5007571;28;20045;-54
2022/07/22 08:57:37;;;;;;;7.53;1.85;;;24.10;56.90;;;;;;5008298;28;20101;-53
2022/07/22 09:00:10;;;;;;;7.82;1.70;;;24.10;56.80;;;;;;5008168;28;20060;-54
2022/07/22 09:02:36;;;;;;;7.07;1.80;;;24.10;56.80;;;;;;5008089;28;20040;-53
2022/07/22 09:05:04;;;;;;;6.45;1.80;;;24.20;56.70;;;;;;5006698;28;20026;-52
2022/07/22 09:07:30;;;;;;;6.63;1.90;;;24.20;56.80;;;;;;5005263;28;20021;-53
2022/07/22 09:09:56;;;;;;;6.10;1.90;;;24.20;57.80;;;;;;5006435;28;20033;-53
2022/07/22 09:12:22;;;;;;;5.45;1.90;;;24.20;56.80;;;;;;5006481;28;20041;-52
2022/07/22 09:14:52;;;;;;;5.00;1.77;;;24.20;56.90;;;;;;5006116;28;20120;-52
2022/07/22 09:17:24;;;;;;;6.63;1.80;;;24.20;56.90;;;;;;5007497;28;20108;-53
2022/07/22 09:19:49;;;;;;;6.55;2.05;;;24.20;56.80;;;;;;5004978;28;20652;-53
2022/07/22 09:22:36;;;;;;;6.10;1.83;;;24.20;56.80;;;;;;5006173;28;20034;-53
2022/07/22 09:25:32;;;;;;;6.07;1.80;;;24.20;56.90;;;;;;5007001;28;20030;-53
2022/07/22 09:28:07;;;;;;;3.92;1.67;;;24.20;56.70;;;;;;5003507;28;20030;-54
2022/07/22 09:30:38;;;;;;;4.90;1.83;;;24.20;57.10;;;;;;5006825;28;20117;-54
2022/07/22 09:33:04;;;;;;;5.40;1.80;;;24.20;57.10;;;;;;5007457;28;20121;-53
2022/07/22 09:35:29;;;;;;;6.85;1.85;;;24.20;57.10;;;;;;5021422;28;20046;-53
2022/07/22 09:38:02;;;;;;;5.72;1.77;;;24.20;56.90;;;;;;5005795;28;20041;-53
2022/07/22 09:40:29;;;;;;;4.63;1.80;;;24.20;57.00;;;;;;5007502;28;20056;-53
2022/07/22 09:42:56;;;;;;;5.53;2.10;;;24.20;57.20;;;;;;5006172;28;20036;-53
2022/07/22 09:45:23;;;;;;;5.72;1.80;;;24.20;57.10;;;;;;5005875;28;20169;-53
2022/07/22 09:47:49;;;;;;;5.90;1.80;;;24.20;57.10;;;;;;5006087;28;20222;-53
2022/07/22 09:50:15;;;;;;;4.93;1.70;;;24.30;57.20;;;;;;5002966;28;20572;-53
2022/07/22 09:52:42;;;;;;;5.25;1.90;;;24.30;57.10;;;;;;5007078;28;20022;-53
2022/07/22 09:55:08;;;;;;;4.70;1.58;;;24.30;57.10;;;;;;5004829;28;20030;-53
2022/07/22 09:57:33;;;;;;;4.85;1.90;;;24.30;57.10;;;;;;5006384;28;20743;-53
2022/07/22 09:59:59;;;;;;;5.50;1.90;;;24.30;57.10;;;;;;5006110;28;20076;-53
2022/07/22 10:02:25;;;;;;;5.15;1.80;;;24.30;57.10;;;;;;5004688;28;20153;-53
2022/07/22 10:04:52;;;;;;;5.10;1.90;;;24.40;57.20;;;;;;4986238;28;20097;-53
2022/07/22 10:07:18;;;;;;;6.00;1.60;;;24.30;57.10;;;;;;5028382;28;20034;-53
2022/07/22 10:09:44;;;;;;;5.75;1.90;;;24.40;57.10;;;;;;5007265;28;20033;-54
2022/07/22 10:12:10;;;;;;;6.90;1.95;;;24.40;57.00;;;;;;5021832;28;20034;-54
2022/07/22 10:14:37;;;;;;;5.13;1.90;;;24.30;57.00;;;;;;5020783;28;20030;-53
2022/07/22 10:17:02;;;;;;;4.22;1.73;;;24.40;57.00;;;;;;4987121;28;20034;-52
2022/07/22 10:19:28;;;;;;;3.35;1.70;;;24.40;56.80;;;;;;5020320;28;20064;-53
2022/07/22 10:21:54;;;;;;;6.55;1.80;;;24.40;56.90;;;;;;5006120;28;20041;-54
2022/07/22 10:24:23;;;;;;;4.22;1.63;;;24.40;56.90;;;;;;5005754;28;20029;-53
2022/07/22 10:26:51;;;;;;;6.13;1.95;;;24.50;57.00;;;;;;5005726;28;20060;-54
2022/07/22 10:29:29;;;;;;;5.38;1.83;;;24.40;56.80;;;;;;5005167;28;20033;-54
2022/07/22 10:32:17;;;;;;;4.85;1.95;;;24.40;56.80;;;;;;5003603;28;20032;-53
2022/07/22 10:34:58;;;;;;;4.28;1.60;;;24.40;56.80;;;;;;5006013;28;20038;-53
2022/07/22 10:37:43;;;;;;;4.90;1.60;;;24.50;56.90;;;;;;5005580;28;20072;-54
2022/07/22 10:40:22;;;;;;;5.10;1.63;;;24.50;57.00;;;;;;5004447;28;20038;-54
2022/07/22 10:42:59;;;;;;;3.97;1.65;;;24.40;56.80;;;;;;5005034;28;20053;-54
2022/07/22 10:45:25;;;;;;;4.88;1.65;;;24.50;56.90;;;;;;5007097;28;20042;-53
2022/07/22 10:48:00;;;;;;;3.72;1.50;;;24.50;56.90;;;;;;5003965;28;20101;-53
2022/07/22 10:50:35;;;;;;;4.47;1.70;;;24.50;56.80;;;;;;5005705;28;20124;-54
2022/07/22 10:53:01;;;;;;;4.30;1.50;;;24.50;56.90;;;;;;5004958;28;20050;-53
2022/07/22 10:55:27;;;;;;;5.80;1.63;;;24.50;56.80;;;;;;5007541;28;20131;-52
2022/07/22 10:57:52;;;;;;;6.75;2.10;;;24.50;56.90;;;;;;5005928;28;20126;-55
2022/07/22 11:00:18;;;;;;;3.30;1.60;;;24.50;56.90;;;;;;5009786;28;20033;-54
2022/07/22 11:02:44;;;;;;;4.38;1.70;;;24.50;56.80;;;;;;5009181;28;20038;-54
2022/07/22 11:05:09;;;;;;;5.05;1.85;;;24.60;56.90;;;;;;5010448;28;20490;-54
2022/07/22 11:07:45;;;;;;;4.68;1.70;;;24.60;56.90;;;;;;5009242;28;20073;-53
2022/07/22 11:10:15;;;;;;;4.00;1.70;;;24.50;56.90;;;;;;5010089;28;20113;-53
2022/07/22 11:12:40;;;;;;;5.57;1.80;;;24.60;56.80;;;;;;5007452;28;20088;-53
2022/07/22 11:15:07;;;;;;;4.50;1.70;;;24.60;56.80;;;;;;5008434;28;20076;-54
2022/07/22 11:17:34;;;;;;;4.90;1.75;;;24.60;56.80;;;;;;5005932;28;20557;-53
2022/07/22 11:20:04;;;;;;;4.13;1.60;;;24.60;56.70;;;;;;5008586;28;20050;-52
2022/07/22 11:22:30;;;;;;;5.60;1.70;;;24.60;56.70;;;;;;5006386;28;20037;-53
2022/07/22 11:24:56;;;;;;;5.85;1.83;;;24.60;56.60;;;;;;5009511;28;20022;-54
2022/07/22 11:27:21;;;;;;;5.57;1.65;;;24.60;56.60;;;;;;5005831;28;20034;-53
2022/07/22 11:29:48;;;;;;;3.13;1.50;;;24.60;56.60;;;;;;5006523;28;20437;-52
2022/07/22 11:32:14;;;;;;;5.30;1.85;;;24.70;56.60;;;;;;5005713;28;20054;-54
2022/07/22 11:34:47;;;;;;;3.72;1.60;;;24.70;56.60;;;;;;5023247;28;20073;-54
2022/07/22 11:37:14;;;;;;;4.50;1.60;;;24.70;56.50;;;;;;5008879;28;20082;-55
2022/07/22 11:39:39;;;;;;;3.95;1.52;;;24.70;56.50;;;;;;5008862;28;20033;-53
2022/07/22 11:42:05;;;;;;;6.20;1.98;;;24.70;56.50;;;;;;5008159;28;20026;-54
2022/07/22 11:44:32;;;;;;;2.67;1.60;;;24.70;56.60;;;;;;5008174;28;20506;-54
2022/07/22 11:46:59;;;;;;;4.60;1.70;;;24.70;56.50;;;;;;5006914;28;20114;-53
2022/07/22 11:49:28;;;;;;;4.15;1.45;;;24.70;56.50;;;;;;5007438;28;20494;-54
2022/07/22 11:51:54;;;;;;;4.43;1.60;;;24.80;56.50;;;;;;5008804;28;20743;-55
2022/07/22 11:54:20;;;;;;;5.43;1.70;;;24.80;56.50;;;;;;5007565;28;20069;-54
2022/07/22 11:56:45;;;;;;;5.28;1.45;;;24.80;56.50;;;;;;5007428;28;20386;-54
2022/07/22 11:59:16;;;;;;;4.55;1.80;;;24.80;56.40;;;;;;5007275;28;20038;-54
2022/07/22 12:01:41;;;;;;;5.07;1.65;;;24.80;56.40;;;;;;5008788;28;20041;-53
2022/07/22 12:04:08;;;;;;;5.07;1.70;;;24.80;56.40;;;;;;5008303;28;20038;-53
2022/07/22 12:06:37;;;;;;;3.63;1.52;;;24.80;56.40;;;;;;5009052;28;20030;-54
2022/07/22 12:09:07;;;;;;;3.38;1.60;;;24.80;56.30;;;;;;5023116;28;20032;-53
2022/07/22 12:11:34;;;;;;;4.35;1.63;;;24.80;56.20;;;;;;5004213;28;20034;-54
2022/07/22 12:14:05;;;;;;;5.25;1.48;;;24.80;56.20;;;;;;5004823;28;20054;-54
2022/07/22 12:16:31;;;;;;;2.83;1.52;;;24.80;56.20;;;;;;5008523;28;20048;-53
2022/07/22 12:19:04;;;;;;;3.15;1.40;;;24.90;56.10;;;;;;5003884;28;20506;-54
2022/07/22 12:21:32;;;;;;;5.55;1.85;;;24.90;56.10;;;;;;5005783;28;20050;-53
2022/07/22 12:24:02;;;;;;;4.38;1.70;;;24.90;56.10;;;;;;5007474;28;20037;-53
2022/07/22 12:26:46;;;;;;;5.57;1.70;;;24.90;56.10;;;;;;5006199;28;20093;-53
2022/07/22 12:29:24;;;;;;;4.78;1.58;;;24.90;56.00;;;;;;5006914;28;20033;-53
2022/07/22 12:31:59;;;;;;;3.22;1.40;;;25.00;56.00;;;;;;5007165;28;20054;-54
2022/07/22 12:34:30;;;;;;;3.15;1.50;;;25.00;56.00;;;;;;5004842;28;20061;-53
2022/07/22 12:36:56;;;;;;;2.63;1.60;;;25.00;56.00;;;;;;5004716;28;20022;-54
2022/07/22 12:39:22;;;;;;;3.28;1.60;;;25.00;55.90;;;;;;5003000;28;20546;-53
2022/07/22 12:41:53;;;;;;;4.45;1.70;;;25.00;55.80;;;;;;5009428;28;20087;-53